createdAt,value
2023-05-13T00:00:19.728Z,7.93
2023-05-13T00:02:46.711Z,7.92
2023-05-13T00:05:13.580Z,7.85
2023-05-13T00:07:41.873Z,7.95
2023-05-13T00:10:09.401Z,8.22
2023-05-13T00:12:36.386Z,8.28
2023-05-13T00:15:05.975Z,8.19
2023-05-13T00:17:33.273Z,8.23
2023-05-13T00:20:00.249Z,8.19
2023-05-13T00:22:27.169Z,8.17
2023-05-13T00:24:54.301Z,8.15
2023-05-13T00:27:21.276Z,8.06
2023-05-13T00:29:48.181Z,8.01
2023-05-13T00:32:15.812Z,8.02
2023-05-13T00:34:42.849Z,8.11
2023-05-13T00:37:11.249Z,8.11
2023-05-13T00:39:38.097Z,8.01
2023-05-13T00:42:05.345Z,8.03
2023-05-13T00:44:32.229Z,8.14
2023-05-13T00:46:59.691Z,8.01
2023-05-13T00:49:26.936Z,8.01
2023-05-13T00:51:55.420Z,7.94
2023-05-13T00:54:22.430Z,7.86
2023-05-13T00:56:49.404Z,7.85
2023-05-13T00:59:18.785Z,7.83
2023-05-13T01:01:56.521Z,7.87
2023-05-13T01:04:45.108Z,7.79
2023-05-13T01:07:28.889Z,7.53
2023-05-13T01:10:13.869Z,7.44
2023-05-13T01:12:44.648Z,7.39
2023-05-13T01:15:15.413Z,7.53
2023-05-13T01:17:54.386Z,7.54
2023-05-13T01:20:24.992Z,7.52
2023-05-13T01:22:52.128Z,7.47
2023-05-13T01:25:21.747Z,7.38
2023-05-13T01:27:48.804Z,7.31
2023-05-13T01:30:16.000Z,7.26
2023-05-13T01:32:42.990Z,7.28
2023-05-13T01:35:11.277Z,7.30
2023-05-13T01:37:38.522Z,7.27
2023-05-13T01:40:17.078Z,7.23
2023-05-13T01:42:51.615Z,7.19
2023-05-13T01:45:19.054Z,7.19
2023-05-13T01:47:45.987Z,7.27
2023-05-13T01:50:12.918Z,7.22
2023-05-13T01:52:39.729Z,7.15
2023-05-13T01:55:06.817Z,7.09
2023-05-13T01:57:33.923Z,7.02
2023-05-13T02:00:00.854Z,6.98
2023-05-13T02:02:27.685Z,6.75
2023-05-13T02:04:54.809Z,6.72
2023-05-13T02:07:21.885Z,6.74
2023-05-13T02:09:48.904Z,6.58
2023-05-13T02:12:16.547Z,6.54
2023-05-13T02:14:43.499Z,6.57
2023-05-13T02:17:10.638Z,6.50
2023-05-13T02:19:37.738Z,6.65
2023-05-13T02:22:04.890Z,6.57
2023-05-13T02:24:31.901Z,6.59
2023-05-13T02:26:58.792Z,6.72
2023-05-13T02:29:26.096Z,6.80
2023-05-13T02:31:53.224Z,6.72
2023-05-13T02:34:22.095Z,6.58
2023-05-13T02:36:49.029Z,6.53
2023-05-13T02:39:16.295Z,6.44
2023-05-13T02:41:44.873Z,6.42
2023-05-13T02:44:11.832Z,6.34
2023-05-13T02:46:38.930Z,6.31
2023-05-13T02:49:05.929Z,6.14
2023-05-13T02:51:32.867Z,6.01
2023-05-13T02:53:59.622Z,6.15
2023-05-13T02:56:26.529Z,6.20
2023-05-13T02:58:53.355Z,6.36
2023-05-13T03:01:20.384Z,6.33
2023-05-13T03:03:47.571Z,6.25
2023-05-13T03:06:14.703Z,6.34
2023-05-13T03:08:41.949Z,6.15
2023-05-13T03:11:08.962Z,6.09
2023-05-13T03:13:36.058Z,6.19
2023-05-13T03:16:03.155Z,6.04
2023-05-13T03:18:31.856Z,6.03
2023-05-13T03:20:58.897Z,6.12
2023-05-13T03:23:26.045Z,6.12
2023-05-13T03:25:53.375Z,6.11
2023-05-13T03:28:23.374Z,6.04
2023-05-13T03:30:51.141Z,6.08
2023-05-13T03:33:19.239Z,6.05
2023-05-13T03:35:49.221Z,6.04
2023-05-13T03:38:17.005Z,5.97
2023-05-13T03:40:47.334Z,6.00
2023-05-13T03:43:14.865Z,5.93
2023-05-13T03:45:47.864Z,5.85
2023-05-13T03:48:16.086Z,5.69
2023-05-13T03:50:45.269Z,5.80
2023-05-13T03:53:16.250Z,5.74
2023-05-13T03:55:43.891Z,5.71
2023-05-13T03:58:15.478Z,5.66
2023-05-13T04:00:43.785Z,5.74
2023-05-13T04:03:10.977Z,5.83
2023-05-13T04:05:37.980Z,5.83
2023-05-13T04:08:05.385Z,5.84
2023-05-13T04:10:32.588Z,5.85
2023-05-13T04:12:59.487Z,5.82
2023-05-13T04:15:26.463Z,5.88
2023-05-13T04:17:54.243Z,5.91
2023-05-13T04:20:21.767Z,5.77
2023-05-13T04:22:49.203Z,5.71
2023-05-13T04:25:16.765Z,5.67
2023-05-13T04:27:43.988Z,5.74
2023-05-13T04:30:11.561Z,5.70
2023-05-13T04:32:39.542Z,5.72
2023-05-13T04:35:08.334Z,5.87
2023-05-13T04:37:35.433Z,5.95
2023-05-13T04:40:02.611Z,6.06
2023-05-13T04:42:29.666Z,6.00
2023-05-13T04:44:57.266Z,6.02
2023-05-13T04:47:24.578Z,6.20
2023-05-13T04:49:51.761Z,6.11
2023-05-13T04:52:22.322Z,6.15
2023-05-13T04:54:49.429Z,6.22
2023-05-13T04:57:16.517Z,6.27
2023-05-13T04:59:43.600Z,6.32
2023-05-13T05:02:10.873Z,6.28
2023-05-13T05:04:40.825Z,6.25
2023-05-13T05:07:08.138Z,6.28
2023-05-13T05:09:35.224Z,6.49
2023-05-13T05:12:02.641Z,6.81
2023-05-13T05:14:29.980Z,7.10
2023-05-13T05:16:57.703Z,7.36
2023-05-13T05:19:25.485Z,7.63
2023-05-13T05:21:52.989Z,7.69
2023-05-13T05:24:21.814Z,8.04
2023-05-13T05:26:49.298Z,8.15
2023-05-13T05:29:19.092Z,8.04
2023-05-13T05:31:46.318Z,8.01
2023-05-13T05:34:13.454Z,7.97
2023-05-13T05:36:40.660Z,7.96
2023-05-13T05:39:07.580Z,8.00
2023-05-13T05:41:34.981Z,8.00
2023-05-13T05:44:02.356Z,8.04
2023-05-13T05:46:30.054Z,8.10
2023-05-13T05:48:57.507Z,8.25
2023-05-13T05:51:27.491Z,8.47
2023-05-13T05:53:55.276Z,8.79
2023-05-13T05:56:23.649Z,9.23
2023-05-13T05:58:51.512Z,9.56
2023-05-13T06:01:18.568Z,9.82
2023-05-13T06:03:48.092Z,10.12
2023-05-13T06:06:15.428Z,10.39
2023-05-13T06:08:42.948Z,10.75
2023-05-13T06:11:10.418Z,10.98
2023-05-13T06:13:37.817Z,11.08
2023-05-13T06:16:08.371Z,11.02
2023-05-13T06:18:35.683Z,10.83
2023-05-13T06:21:03.195Z,11.16
2023-05-13T06:23:31.041Z,11.41
2023-05-13T06:25:59.607Z,11.72
2023-05-13T06:28:28.148Z,11.60
2023-05-13T06:30:56.622Z,11.77
2023-05-13T06:33:24.014Z,11.93
2023-05-13T06:35:51.369Z,12.26
2023-05-13T06:38:22.393Z,12.60
2023-05-13T06:40:50.531Z,13.09
2023-05-13T06:43:20.723Z,13.49
2023-05-13T06:45:49.478Z,13.54
2023-05-13T06:48:22.682Z,13.89
2023-05-13T06:50:51.183Z,14.25
2023-05-13T06:56:11.968Z,14.59
2023-05-13T06:58:45.447Z,14.72
2023-05-13T07:01:17.099Z,15.08
2023-05-13T07:04:03.137Z,15.27
2023-05-13T07:06:34.549Z,15.56
2023-05-13T07:09:08.461Z,16.09
2023-05-13T07:11:47.512Z,16.45
2023-05-13T07:14:16.442Z,16.69
2023-05-13T07:16:52.715Z,16.79
2023-05-13T07:22:07.099Z,16.72
2023-05-13T07:24:35.933Z,16.75
2023-05-13T07:29:46.615Z,17.16
2023-05-13T07:32:25.788Z,17.37
2023-05-13T07:34:53.660Z,17.55
2023-05-13T07:37:29.701Z,17.51
2023-05-13T07:39:56.883Z,17.60
2023-05-13T07:42:53.886Z,17.72
2023-05-13T07:48:11.397Z,17.82
2023-05-13T07:50:43.685Z,17.99
2023-05-13T07:53:23.997Z,18.06
2023-05-13T07:55:52.350Z,18.13
2023-05-13T07:58:23.489Z,17.87
2023-05-13T08:03:41.297Z,18.29
2023-05-13T08:06:20.263Z,18.60
2023-05-13T08:08:51.403Z,19.03
2023-05-13T08:14:17.311Z,19.11
2023-05-13T08:16:57.252Z,19.18
2023-05-13T08:27:44.635Z,19.13
2023-05-13T08:30:32.363Z,19.22
2023-05-13T08:32:59.665Z,18.99
2023-05-13T08:38:10.799Z,19.40
2023-05-13T08:43:15.485Z,19.95
2023-05-13T08:45:42.948Z,19.99
2023-05-13T08:48:10.461Z,19.83
2023-05-13T08:50:37.312Z,19.72
2023-05-13T08:53:04.755Z,19.23
2023-05-13T08:55:31.437Z,19.25
2023-05-13T08:57:58.538Z,19.21
2023-05-13T09:00:26.007Z,19.11
2023-05-13T09:03:12.310Z,19.20
2023-05-13T09:08:39.052Z,18.97
2023-05-13T09:11:07.919Z,19.18
2023-05-13T09:13:35.982Z,19.00
2023-05-13T09:16:04.412Z,18.92
2023-05-13T09:18:52.681Z,19.37
2023-05-13T09:21:33.488Z,19.15
2023-05-13T09:24:20.410Z,18.27
2023-05-13T09:26:52.089Z,17.81
2023-05-13T09:29:29.888Z,17.61
2023-05-13T09:32:00.101Z,17.52
2023-05-13T09:34:29.515Z,17.37
2023-05-13T09:37:03.263Z,17.19
2023-05-13T09:39:38.081Z,17.10
2023-05-13T09:42:06.531Z,17.11
2023-05-13T09:50:29.141Z,16.91
2023-05-13T09:52:59.076Z,16.80
2023-05-13T09:55:26.434Z,16.72
2023-05-13T09:57:54.057Z,16.64
2023-05-13T10:00:35.460Z,16.54
2023-05-13T10:03:08.306Z,16.60
2023-05-13T10:08:23.867Z,16.60
2023-05-13T10:10:55.202Z,16.68
2023-05-13T10:13:29.261Z,16.71
2023-05-13T10:16:05.022Z,16.64
2023-05-13T10:18:40.789Z,16.82
2023-05-13T10:21:10.296Z,16.72
2023-05-13T10:23:39.766Z,16.68
2023-05-13T10:26:07.952Z,16.60
2023-05-13T10:28:35.027Z,16.51
2023-05-13T10:31:03.220Z,16.46
2023-05-13T10:33:31.197Z,16.52
2023-05-13T10:36:20.415Z,16.50
2023-05-13T10:39:02.654Z,17.03
2023-05-13T10:41:59.959Z,18.59
2023-05-13T10:45:03.306Z,19.28
2023-05-13T10:47:34.082Z,18.75
2023-05-13T10:50:06.227Z,18.27
2023-05-13T10:52:48.683Z,17.75
2023-05-13T10:55:20.809Z,17.39
2023-05-13T10:58:29.871Z,17.19
2023-05-13T11:01:16.383Z,17.61
2023-05-13T11:04:21.633Z,18.74
2023-05-13T11:06:51.762Z,21.88
2023-05-13T11:09:29.111Z,22.28
2023-05-13T11:12:06.388Z,21.65
2023-05-13T11:14:33.544Z,20.55
2023-05-13T11:17:01.249Z,22.31
2023-05-13T11:19:32.404Z,23.47
2023-05-13T11:22:07.010Z,22.19
2023-05-13T11:27:25.765Z,20.56
2023-05-13T11:29:56.132Z,19.97
2023-05-13T11:33:07.982Z,19.38
2023-05-13T11:35:35.134Z,18.97
2023-05-13T11:38:03.752Z,21.23
2023-05-13T11:40:34.267Z,23.34
2023-05-13T11:43:02.434Z,24.78
2023-05-13T11:45:35.837Z,26.77
2023-05-13T11:48:24.520Z,27.10
2023-05-13T11:50:53.866Z,27.06
2023-05-13T11:53:24.039Z,27.85
2023-05-13T11:55:57.037Z,28.08
2023-05-13T11:58:24.563Z,28.22
2023-05-13T12:00:53.893Z,28.75
2023-05-13T12:04:01.171Z,31.30
2023-05-13T12:06:37.816Z,31.43
2023-05-13T12:10:05.147Z,31.88
2023-05-13T12:12:40.299Z,31.76
2023-05-13T12:15:11.140Z,30.22
2023-05-13T12:20:32.165Z,29.71
2023-05-13T12:23:09.220Z,30.03
2023-05-13T12:25:59.381Z,30.94
2023-05-13T12:28:30.412Z,32.36
2023-05-13T12:30:59.070Z,32.35
2023-05-13T12:33:26.866Z,30.09
2023-05-13T12:35:55.667Z,30.41
2023-05-13T12:38:24.583Z,32.27
2023-05-13T12:40:52.511Z,31.27
2023-05-13T12:43:19.849Z,31.80
2023-05-13T12:45:48.233Z,29.74
2023-05-13T12:48:15.017Z,30.17
2023-05-13T12:50:41.682Z,30.92
2023-05-13T12:53:08.356Z,31.29
2023-05-13T12:55:40.080Z,31.35
2023-05-13T12:58:10.930Z,31.98
2023-05-13T13:00:37.691Z,33.50
2023-05-13T13:03:04.544Z,34.56
2023-05-13T13:05:31.941Z,34.61
2023-05-13T13:07:58.687Z,34.04
2023-05-13T13:10:25.454Z,34.16
2023-05-13T13:12:52.398Z,33.19
2023-05-13T13:15:19.463Z,32.23
2023-05-13T13:17:46.284Z,31.82
2023-05-13T13:20:13.040Z,30.51
2023-05-13T13:22:39.811Z,29.47
2023-05-13T13:25:07.040Z,30.58
2023-05-13T13:27:34.795Z,27.42
2023-05-13T13:30:01.728Z,28.31
2023-05-13T13:32:29.544Z,26.52
2023-05-13T13:34:58.179Z,25.09
2023-05-13T13:37:24.925Z,23.74
2023-05-13T13:39:51.813Z,22.14
2023-05-13T13:42:18.858Z,21.26
2023-05-13T13:44:46.646Z,20.39
2023-05-13T13:47:15.749Z,19.79
2023-05-13T13:49:47.349Z,19.25
2023-05-13T13:52:17.910Z,18.58
2023-05-13T13:57:33.552Z,18.22
2023-05-13T14:00:02.286Z,17.84
2023-05-13T14:02:34.632Z,17.77
2023-05-13T14:05:02.772Z,17.43
2023-05-13T14:07:46.950Z,17.39
2023-05-13T14:10:14.309Z,17.18
2023-05-13T14:12:41.623Z,16.95
2023-05-13T14:17:57.152Z,16.61
2023-05-13T14:23:23.103Z,16.68
2023-05-13T14:25:55.785Z,16.99
2023-05-13T14:46:01.819Z,19.62
2023-05-13T14:48:43.779Z,18.75
2023-05-13T15:14:10.699Z,20.72
2023-05-13T15:16:38.461Z,20.21
2023-05-13T15:19:07.840Z,19.84
2023-05-13T15:21:35.356Z,19.60
2023-05-13T15:24:02.518Z,19.78
2023-05-13T15:26:32.923Z,19.45
2023-05-13T15:28:59.990Z,19.20
2023-05-13T15:31:30.480Z,19.40
2023-05-13T15:33:59.205Z,19.46
2023-05-13T15:36:31.390Z,19.04
2023-05-13T15:38:58.622Z,19.17
2023-05-13T15:41:25.700Z,20.04
2023-05-13T15:44:00.547Z,20.76
2023-05-13T15:46:30.638Z,20.24
2023-05-13T15:49:01.654Z,19.66
2023-05-13T15:51:32.004Z,19.55
2023-05-13T15:54:03.793Z,19.34
2023-05-13T15:56:34.379Z,19.22
2023-05-13T15:59:04.378Z,19.13
2023-05-13T16:07:29.017Z,19.29
2023-05-13T16:09:55.767Z,19.31
2023-05-13T16:12:25.153Z,19.24
2023-05-13T16:14:51.837Z,19.29
2023-05-13T16:17:18.609Z,19.13
2023-05-13T16:19:45.360Z,19.14
2023-05-13T16:22:34.833Z,18.95
2023-05-13T16:25:03.273Z,18.51
2023-05-13T16:27:30.471Z,18.16
2023-05-13T16:29:58.117Z,17.98
2023-05-13T16:32:25.287Z,17.63
2023-05-13T16:34:52.608Z,17.51
2023-05-13T16:37:19.366Z,17.06
2023-05-13T16:39:46.310Z,16.90
2023-05-13T16:42:13.065Z,16.94
2023-05-13T16:44:39.897Z,16.88
2023-05-13T16:47:08.693Z,16.74
2023-05-13T16:49:36.513Z,16.42
2023-05-13T16:52:04.468Z,16.15
2023-05-13T16:54:31.502Z,16.01
2023-05-13T16:56:58.664Z,15.78
2023-05-13T16:59:27.609Z,15.65
2023-05-13T17:01:54.604Z,15.60
2023-05-13T17:04:22.700Z,15.52
2023-05-13T17:06:49.573Z,15.49
2023-05-13T17:09:17.274Z,15.53
2023-05-13T17:11:44.041Z,15.49
2023-05-13T17:14:10.798Z,15.65
2023-05-13T17:16:38.868Z,15.69
2023-05-13T17:19:06.685Z,15.70
2023-05-13T17:26:58.648Z,15.88
2023-05-13T17:29:26.791Z,15.95
2023-05-13T17:31:56.127Z,15.93
2023-05-13T17:34:24.833Z,15.81
2023-05-13T18:41:17.623Z,14.39
2023-05-13T18:43:44.484Z,14.13
2023-05-13T18:46:11.952Z,13.94
2023-05-13T18:48:38.567Z,13.66
2023-05-13T18:51:05.381Z,13.51
2023-05-13T18:53:32.311Z,13.21
2023-05-13T18:55:59.235Z,12.99
2023-05-13T18:58:26.964Z,12.73
2023-05-13T19:00:54.066Z,12.51
2023-05-13T19:03:20.940Z,12.23
2023-05-13T19:05:48.547Z,11.94
2023-05-13T19:08:22.818Z,11.76
2023-05-13T19:10:52.950Z,11.64
2023-05-13T19:13:33.056Z,11.47
2023-05-13T19:16:15.585Z,11.22
2023-05-13T19:18:46.599Z,11.03
2023-05-13T19:21:16.757Z,10.94
2023-05-13T19:23:49.854Z,10.85
2023-05-13T19:26:25.716Z,10.85
2023-05-13T19:35:08.881Z,10.61
2023-05-13T19:40:23.776Z,10.48
2023-05-13T19:43:06.030Z,10.37
2023-05-13T19:45:39.886Z,10.27
2023-05-13T19:51:12.350Z,10.13
2023-05-13T19:53:48.600Z,10.08
2023-05-13T19:59:05.791Z,9.98
2023-05-13T20:10:04.605Z,9.79
2023-05-13T20:12:42.277Z,9.64
2023-05-13T20:15:18.687Z,9.56
2023-05-13T20:17:47.919Z,9.55
2023-05-13T20:20:23.014Z,9.49
2023-05-13T20:22:53.016Z,9.36
2023-05-13T20:25:29.717Z,9.19
2023-05-13T20:27:57.112Z,9.06
2023-05-13T20:30:26.414Z,8.86
2023-05-13T20:33:01.000Z,8.73
2023-05-13T20:35:32.027Z,8.71
2023-05-13T20:38:05.546Z,8.73
2023-05-13T20:40:32.919Z,8.79
2023-05-13T20:43:03.093Z,8.56
2023-05-13T20:45:31.856Z,8.53
2023-05-13T20:48:00.415Z,8.50
2023-05-13T20:50:32.200Z,8.39
2023-05-13T20:52:59.398Z,8.20
2023-05-13T20:55:29.791Z,8.17
2023-05-13T20:57:57.218Z,8.15
2023-05-13T21:00:24.793Z,8.09
2023-05-13T21:03:02.535Z,8.03
2023-05-13T21:05:30.936Z,8.00
2023-05-13T21:07:58.807Z,8.04
2023-05-13T21:10:29.930Z,8.15
2023-05-13T21:12:58.415Z,8.07
2023-05-13T21:15:29.953Z,8.16
2023-05-13T21:18:01.066Z,8.10
2023-05-13T21:20:33.146Z,7.92
2023-05-13T21:23:16.154Z,7.97
2023-05-13T22:26:37.174Z,7.43
2023-05-13T22:32:01.962Z,7.50
2023-05-13T22:58:47.771Z,7.28
2023-05-13T23:06:53.252Z,7.60
2023-05-13T23:09:23.187Z,7.58
2023-05-13T23:14:48.647Z,7.15
